Time;durP1;ratioP1;P1;durP2;ratioP2;P2;SDS_P1;SDS_P2;PMS_P1;PMS_P2;Temp;Humidity;BMP_temperature;BMP_pressure;BME280_temperature;BME280_humidity;BME280_pressure;Samples;Min_cycle;Max_cycle;Signal;HPM_P1;HPM_P2
2022/10/05 00:00:25;;;;;;;;;;;;;;;14.55;100.00;101705.84;5019924;28;19940;-44
2022/10/05 00:02:52;;;;;;;;;;;;;;;14.55;100.00;101708.53;5019769;28;20416;-42
2022/10/05 00:05:31;;;;;;;;;;;;;;;14.55;100.00;101713.06;5019790;28;19987;-42
2022/10/05 00:08:03;;;;;;;;;;;;;;;14.54;100.00;101714.06;5020240;28;19920;-43
2022/10/05 00:10:28;;;;;;;;;;;;;;;14.50;100.00;101713.56;5019637;28;19948;-42
2022/10/05 00:12:53;;;;;;;;;;;;;;;14.50;100.00;101707.34;5018116;28;19956;-41
2022/10/05 00:15:19;;;;;;;;;;;;;;;14.49;100.00;101708.34;5019004;28;20175;-44
2022/10/05 00:17:44;;;;;;;;;;;;;;;14.48;100.00;101698.63;5019309;28;19921;-45
2022/10/05 00:20:15;;;;;;;;;;;;;;;14.46;100.00;101689.84;5019560;28;19924;-42
2022/10/05 00:22:40;;;;;;;;;;;;;;;14.46;100.00;101690.72;5019691;28;19917;-44
2022/10/05 00:25:11;;;;;;;;;;;;;;;14.44;100.00;101695.41;5015546;28;20384;-42
2022/10/05 00:27:37;;;;;;;;;;;;;;;14.43;100.00;101691.03;5016503;28;19917;-45
2022/10/05 00:30:11;;;;;;;;;;;;;;;14.44;100.00;101691.88;5018690;28;20336;-41
2022/10/05 00:32:37;;;;;;;;;;;;;;;14.42;100.00;101683.97;5019090;28;19924;-41
2022/10/05 00:35:02;;;;;;;;;;;;;;;14.41;100.00;101684.13;5019558;28;19921;-42
2022/10/05 00:37:27;;;;;;;;;;;;;;;14.39;100.00;101686.16;5019438;28;20279;-42
2022/10/05 00:39:52;;;;;;;;;;;;;;;14.36;100.00;101680.13;5019212;28;20340;-45
2022/10/05 00:42:32;;;;;;;;;;;;;;;14.35;100.00;101677.59;5017906;28;20010;-42
2022/10/05 00:45:01;;;;;;;;;;;;;;;14.32;100.00;101680.59;5017610;28;20446;-42
2022/10/05 00:47:33;;;;;;;;;;;;;;;14.27;100.00;101686.47;5019137;28;19920;-44
2022/10/05 00:50:04;;;;;;;;;;;;;;;14.27;100.00;101688.31;5019182;28;20344;-44
2022/10/05 00:52:48;;;;;;;;;;;;;;;14.26;100.00;101687.47;5019687;28;19913;-42
2022/10/05 00:55:19;;;;;;;;;;;;;;;14.26;100.00;101687.47;5018380;28;19960;-45
2022/10/05 00:58:03;;;;;;;;;;;;;;;14.25;100.00;101691.16;5015848;28;19992;-40
2022/10/05 01:00:31;;;;;;;;;;;;;;;14.24;100.00;101688.63;5018779;28;19924;-42
2022/10/05 01:03:17;;;;;;;;;;;;;;;14.22;100.00;101679.91;5018587;28;19927;-45
2022/10/05 01:05:42;;;;;;;;;;;;;;;14.21;100.00;101679.06;5019065;28;19980;-45
2022/10/05 01:08:21;;;;;;;;;;;;;;;14.19;100.00;101673.03;5024329;28;20538;-43
2022/10/05 01:10:50;;;;;;;;;;;;;;;14.16;100.00;101676.88;5017861;28;19924;-45
2022/10/05 01:13:25;;;;;;;;;;;;;;;14.15;100.00;101664.47;5014894;28;20423;-42
2022/10/05 01:15:55;;;;;;;;;;;;;;;14.15;100.00;101677.91;5014326;28;19964;-42
2022/10/05 01:18:24;;;;;;;;;;;;;;;14.15;100.00;101652.84;5018625;28;19979;-41
2022/10/05 01:21:02;;;;;;;;;;;;;;;14.13;100.00;101647.66;5014900;28;19980;-43
2022/10/05 01:23:46;;;;;;;;;;;;;;;14.12;100.00;101651.34;5018657;28;19973;-44
2022/10/05 01:26:30;;;;;;;;;;;;;;;14.12;100.00;101653.19;5015731;28;20616;-43
2022/10/05 01:28:55;;;;;;;;;;;;;;;14.09;100.00;101653.53;5016915;28;19921;-45
2022/10/05 01:31:27;;;;;;;;;;;;;;;14.07;100.00;101656.38;5017971;28;19917;-45
2022/10/05 01:34:02;;;;;;;;;;;;;;;14.08;100.00;101659.91;5017652;28;19917;-42
2022/10/05 01:36:31;;;;;;;;;;;;;;;14.07;100.00;101658.22;5017051;28;19943;-43
2022/10/05 01:39:05;;;;;;;;;;;;;;;14.07;100.00;101642.09;5017462;28;19917;-45
2022/10/05 01:41:44;;;;;;;;;;;;;;;14.07;100.00;101652.84;5017979;28;20442;-42
2022/10/05 01:44:09;;;;;;;;;;;;;;;14.04;100.00;101645.97;5009787;28;20383;-43
2022/10/05 01:46:58;;;;;;;;;;;;;;;14.03;100.00;101644.28;5008714;28;19921;-45
2022/10/05 01:49:23;;;;;;;;;;;;;;;14.05;100.00;101642.25;5013534;28;20471;-45
2022/10/05 01:51:57;;;;;;;;;;;;;;;14.04;100.00;101635.22;5017572;28;20016;-43
2022/10/05 01:54:34;;;;;;;;;;;;;;;14.04;100.00;101627.16;5017839;28;19927;-43
2022/10/05 01:57:05;;;;;;;;;;;;;;;14.03;100.00;101620.09;5016196;28;20294;-43
2022/10/05 01:59:33;;;;;;;;;;;;;;;14.01;100.00;101610.53;5017583;28;19921;-44
2022/10/05 02:02:08;;;;;;;;;;;;;;;13.99;100.00;101605.34;5015677;28;19917;-44
2022/10/05 02:04:56;;;;;;;;;;;;;;;13.97;100.00;101608.19;5016181;28;20398;-45
2022/10/05 02:07:23;;;;;;;;;;;;;;;13.95;100.00;101599.47;5012675;28;19929;-44
2022/10/05 02:10:07;;;;;;;;;;;;;;;13.92;100.00;101599.78;5018221;28;19924;-45
2022/10/05 02:12:35;;;;;;;;;;;;;;;13.91;100.00;101599.94;5015347;28;19917;-43
2022/10/05 02:15:07;;;;;;;;;;;;;;;13.90;100.00;101598.25;5017412;28;20404;-42
2022/10/05 02:17:55;;;;;;;;;;;;;;;13.90;100.00;101600.94;5018150;28;19952;-44
2022/10/05 02:20:23;;;;;;;;;;;;;;;13.87;100.00;101603.97;5017103;28;19921;-40
2022/10/05 02:22:51;;;;;;;;;;;;;;;13.87;100.00;101594.06;5020430;28;19921;-41
2022/10/05 02:25:20;;;;;;;;;;;;;;;13.88;100.00;101586.84;5021433;28;20048;-41
2022/10/05 02:28:04;;;;;;;;;;;;;;;13.87;100.00;101590.53;5019963;28;19925;-42
2022/10/05 02:30:30;;;;;;;;;;;;;;;13.86;100.00;101588.84;5021600;28;19925;-43
2022/10/05 02:33:05;;;;;;;;;;;;;;;13.86;100.00;101587.00;5021311;28;20392;-42
2022/10/05 02:35:31;;;;;;;;;;;;;;;13.87;100.00;101585.19;5017246;28;20619;-44
2022/10/05 02:37:59;;;;;;;;;;;;;;;13.86;100.00;101575.44;5020691;28;19924;-43
2022/10/05 02:40:24;;;;;;;;;;;;;;;13.87;100.00;101577.94;5021515;28;19921;-43
2022/10/05 02:43:08;;;;;;;;;;;;;;;13.88;100.00;101573.41;5019609;28;20582;-44
2022/10/05 02:45:52;;;;;;;;;;;;;;;13.86;100.00;101564.69;5021786;28;20046;-43
2022/10/05 02:48:33;;;;;;;;;;;;;;;13.87;100.00;101577.13;5021885;28;19995;-43
2022/10/05 02:51:21;;;;;;;;;;;;;;;13.86;100.00;101572.75;5021257;28;20550;-43
2022/10/05 02:54:02;;;;;;;;;;;;;;;13.83;100.00;101562.31;5020404;28;19917;-45
2022/10/05 02:56:27;;;;;;;;;;;;;;;13.82;100.00;101558.81;5011990;28;20059;-42
2022/10/05 02:59:13;;;;;;;;;;;;;;;13.81;100.00;101546.38;5019916;28;20663;-44
2022/10/05 03:01:45;;;;;;;;;;;;;;;13.83;100.00;101544.34;5020984;28;19936;-42
2022/10/05 03:04:23;;;;;;;;;;;;;;;13.79;100.00;101538.50;5018728;28;19995;-43
2022/10/05 03:07:05;;;;;;;;;;;;;;;13.79;100.00;101540.34;5021567;28;20453;-42
2022/10/05 03:09:34;;;;;;;;;;;;;;;13.78;100.00;101533.28;5008383;28;20306;-41
2022/10/05 03:12:16;;;;;;;;;;;;;;;13.78;100.00;101544.88;5019635;28;20325;-44
2022/10/05 03:14:41;;;;;;;;;;;;;;;13.79;100.00;101535.81;5020073;28;20007;-46
2022/10/05 03:17:14;;;;;;;;;;;;;;;13.80;100.00;101542.88;5020645;28;20003;-43
2022/10/05 03:19:49;;;;;;;;;;;;;;;13.82;100.00;101539.19;5021345;28;19956;-43
2022/10/05 03:22:34;;;;;;;;;;;;;;;13.84;100.00;101537.16;5020887;28;20403;-42
2022/10/05 03:25:18;;;;;;;;;;;;;;;13.83;100.00;101528.25;5013404;28;19931;-42
2022/10/05 03:27:46;;;;;;;;;;;;;;;13.85;100.00;101537.00;5019247;28;20369;-43
2022/10/05 03:30:14;;;;;;;;;;;;;;;13.89;100.00;101542.88;5014289;28;19921;-43
2022/10/05 03:32:45;;;;;;;;;;;;;;;13.85;100.00;101534.31;5019464;28;19921;-44
2022/10/05 03:35:16;;;;;;;;;;;;;;;13.87;100.00;101531.47;5018891;28;19928;-43
2022/10/05 03:38:00;;;;;;;;;;;;;;;13.88;100.00;101541.19;5020974;28;19924;-44
2022/10/05 03:40:33;;;;;;;;;;;;;;;13.86;100.00;101535.97;5018833;28;19972;-45
2022/10/05 03:43:17;;;;;;;;;;;;;;;13.84;100.00;101540.69;5019106;28;19968;-42
2022/10/05 03:45:54;;;;;;;;;;;;;;;13.82;100.00;101533.81;5012571;28;20233;-43
2022/10/05 03:48:27;;;;;;;;;;;;;;;13.86;100.00;101535.16;5020297;28;20023;-46
2022/10/05 03:51:07;;;;;;;;;;;;;;;13.81;100.00;101532.94;5020263;28;20009;-44
2022/10/05 03:53:39;;;;;;;;;;;;;;;13.82;100.00;101533.81;5020277;28;20217;-45
2022/10/05 03:56:18;;;;;;;;;;;;;;;13.77;100.00;101537.81;5019186;28;20390;-44
2022/10/05 03:58:54;;;;;;;;;;;;;;;13.79;100.00;101535.81;5017867;28;20072;-43
2022/10/05 04:01:22;;;;;;;;;;;;;;;13.78;100.00;101544.03;5011984;28;19947;-43
2022/10/05 04:03:50;;;;;;;;;;;;;;;13.77;100.00;101528.94;5020511;28;20033;-43
2022/10/05 04:06:19;;;;;;;;;;;;;;;13.75;100.00;101536.31;5019846;28;20449;-42
2022/10/05 04:09:04;;;;;;;;;;;;;;;13.78;100.00;101546.69;5018865;28;19921;-45
2022/10/05 04:11:52;;;;;;;;;;;;;;;13.75;100.00;101539.84;5018453;28;19917;-43
2022/10/05 04:14:22;;;;;;;;;;;;;;;13.77;100.00;101543.19;5017636;28;20267;-44
2022/10/05 04:16:51;;;;;;;;;;;;;;;13.74;100.00;101538.13;5019161;28;19924;-43
2022/10/05 04:19:20;;;;;;;;;;;;;;;13.76;100.00;101541.53;5019825;28;19928;-43
2022/10/05 04:21:50;;;;;;;;;;;;;;;13.75;100.00;101526.41;5020407;28;19910;-44
2022/10/05 04:24:35;;;;;;;;;;;;;;;13.74;100.00;101535.47;5019264;28;20499;-43
2022/10/05 04:27:05;;;;;;;;;;;;;;;13.71;100.00;101529.59;5017734;28;19921;-43
2022/10/05 04:29:30;;;;;;;;;;;;;;;13.72;100.00;101534.78;5018451;28;20237;-44
2022/10/05 04:32:01;;;;;;;;;;;;;;;13.64;100.00;101517.84;5019622;28;19936;-40
2022/10/05 04:34:51;;;;;;;;;;;;;;;13.65;100.00;101533.78;5017558;28;20194;-42
2022/10/05 04:37:21;;;;;;;;;;;;;;;13.65;100.00;101522.22;5019044;28;19924;-43
2022/10/05 04:39:58;;;;;;;;;;;;;;;13.59;100.00;101518.31;5019454;28;20059;-42
2022/10/05 04:42:26;;;;;;;;;;;;;;;13.60;100.00;101522.69;5016088;28;20387;-44
2022/10/05 04:45:10;;;;;;;;;;;;;;;13.58;100.00;101513.97;5017798;28;19925;-45
2022/10/05 04:47:47;;;;;;;;;;;;;;;13.59;100.00;101519.19;5019785;28;19917;-43
2022/10/05 04:50:18;;;;;;;;;;;;;;;13.59;100.00;101515.63;5017481;28;19917;-41
2022/10/05 04:53:12;;;;;;;;;;;;;;;13.60;100.00;101512.78;5019424;28;20422;-41
2022/10/05 04:55:50;;;;;;;;;;;;;;;13.61;100.00;101517.16;5012510;28;20491;-44
2022/10/05 04:58:34;;;;;;;;;;;;;;;13.65;100.00;101519.53;5013724;28;20369;-43
2022/10/05 05:01:10;;;;;;;;;;;;;;;13.68;100.00;101511.13;5016178;28;19928;-41
2022/10/05 05:04:01;;;;;;;;;;;;;;;13.67;100.00;101512.97;5019083;28;19928;-43
2022/10/05 05:06:36;;;;;;;;;;;;;;;13.70;100.00;101504.59;5018495;28;20497;-41
2022/10/05 05:09:01;;;;;;;;;;;;;;;13.70;100.00;101515.34;5002752;28;19917;-43
2022/10/05 05:11:26;;;;;;;;;;;;;;;13.71;100.00;101505.41;5012249;28;20388;-43
2022/10/05 05:14:10;;;;;;;;;;;;;;;13.70;100.00;101503.75;5004855;28;19975;-41
2022/10/05 05:16:35;;;;;;;;;;;;;;;13.72;100.00;101501.75;5001827;28;20460;-42
2022/10/05 05:19:06;;;;;;;;;;;;;;;13.72;100.00;101502.56;5014635;28;19917;-44
2022/10/05 05:21:41;;;;;;;;;;;;;;;13.73;100.00;101501.59;5023818;28;20021;-43
2022/10/05 05:24:13;;;;;;;;;;;;;;;13.73;100.00;101495.34;5000189;28;19976;-42
2022/10/05 05:26:56;;;;;;;;;;;;;;;13.74;100.00;101500.56;5006187;28;19917;-43
2022/10/05 05:29:47;;;;;;;;;;;;;;;13.75;100.00;101494.19;5009499;28;19971;-41
2022/10/05 05:32:18;;;;;;;;;;;;;;;13.76;100.00;101493.19;5013116;28;19970;-43
2022/10/05 05:35:02;;;;;;;;;;;;;;;13.76;100.00;101497.72;5000920;28;20345;-43
2022/10/05 05:37:30;;;;;;;;;;;;;;;13.78;100.00;101495.69;5002048;28;19917;-45
2022/10/05 05:40:13;;;;;;;;;;;;;;;13.75;100.00;101491.50;5013293;28;20411;-44
2022/10/05 05:42:55;;;;;;;;;;;;;;;13.76;100.00;101490.53;5007488;28;20392;-43
2022/10/05 05:45:27;;;;;;;;;;;;;;;13.75;100.00;101490.69;5015058;28;20416;-45
2022/10/05 05:47:53;;;;;;;;;;;;;;;13.73;100.00;101490.84;5005054;28;20249;-44
2022/10/05 05:50:37;;;;;;;;;;;;;;;13.72;100.00;101494.53;5013490;28;20304;-45
2022/10/05 05:53:14;;;;;;;;;;;;;;;13.68;100.00;101495.88;5016003;28;19917;-45
2022/10/05 05:55:47;;;;;;;;;;;;;;;13.69;100.00;101481.44;5008081;28;20538;-41
2022/10/05 05:58:15;;;;;;;;;;;;;;;13.68;100.00;101495.00;5003689;28;19940;-46
2022/10/05 06:00:47;;;;;;;;;;;;;;;13.67;100.00;101488.81;5014253;28;19939;-41
2022/10/05 06:03:18;;;;;;;;;;;;;;;13.66;100.00;101487.13;5004322;28;19917;-42
2022/10/05 06:06:00;;;;;;;;;;;;;;;13.65;100.00;101481.94;5010892;28;20448;-44
2022/10/05 06:08:31;;;;;;;;;;;;;;;13.65;100.00;101479.25;5024847;28;20183;-42
2022/10/05 06:10:59;;;;;;;;;;;;;;;13.64;100.00;101475.72;5017232;28;19920;-43
2022/10/05 06:13:27;;;;;;;;;;;;;;;13.64;100.00;101478.41;5018070;28;20427;-43
2022/10/05 06:15:56;;;;;;;;;;;;;;;13.64;100.00;101488.31;5016267;28;19925;-43
2022/10/05 06:18:22;;;;;;;;;;;;;;;13.62;100.00;101480.41;5019392;28;19923;-42
2022/10/05 06:20:58;;;;;;;;;;;;;;;13.65;100.00;101485.47;5017766;28;19921;-44
2022/10/05 06:23:46;;;;;;;;;;;;;;;13.62;100.00;101486.63;5019916;28;20388;-43
2022/10/05 06:26:12;;;;;;;;;;;;;;;13.65;100.00;101480.09;5017136;28;20407;-42
2022/10/05 06:28:37;;;;;;;;;;;;;;;13.66;100.00;101483.59;5007417;28;19964;-43
2022/10/05 06:31:28;;;;;;;;;;;;;;;13.67;100.00;101485.31;5016968;28;20367;-43
2022/10/05 06:33:59;;;;;;;;;;;;;;;13.68;100.00;101481.59;5004958;28;19921;-42
2022/10/05 06:36:26;;;;;;;;;;;;;;;13.64;100.00;101480.25;5010584;28;19921;-42
2022/10/05 06:38:57;;;;;;;;;;;;;;;13.64;100.00;101474.88;5007621;28;19979;-43
2022/10/05 06:41:44;;;;;;;;;;;;;;;13.65;100.00;101474.72;5004453;28;19920;-43
2022/10/05 06:44:12;;;;;;;;;;;;;;;13.67;100.00;101479.94;5008512;28;20016;-43
2022/10/05 06:46:56;;;;;;;;;;;;;;;13.68;100.00;101481.59;5007873;28;19920;-42
2022/10/05 06:49:22;;;;;;;;;;;;;;;13.71;100.00;101479.41;5007936;28;20346;-47
2022/10/05 06:51:54;;;;;;;;;;;;;;;13.73;100.00;101472.06;5019040;28;19924;-46
2022/10/05 06:54:38;;;;;;;;;;;;;;;13.75;100.00;101475.41;5019381;28;19917;-43
2022/10/05 06:57:29;;;;;;;;;;;;;;;13.76;100.00;101479.78;5002214;28;19925;-45
2022/10/05 06:59:54;;;;;;;;;;;;;;;13.79;100.00;101479.41;5000674;28;19932;-43
2022/10/05 07:02:19;;;;;;;;;;;;;;;13.82;100.00;101485.50;5013348;28;19925;-45
2022/10/05 07:04:54;;;;;;;;;;;;;;;13.84;100.00;101486.97;5007375;28;20380;-43
2022/10/05 07:07:31;;;;;;;;;;;;;;;13.86;100.00;101494.88;5018387;28;20003;-43
2022/10/05 07:10:02;;;;;;;;;;;;;;;13.87;100.00;101497.41;5013566;28;20308;-42
2022/10/05 07:12:30;;;;;;;;;;;;;;;13.89;100.00;101492.69;5003163;28;19931;-45
2022/10/05 07:15:02;;;;;;;;;;;;;;;13.92;100.00;101487.00;5013641;28;19920;-43
2022/10/05 07:17:30;;;;;;;;;;;;;;;13.99;100.00;101481.78;5016431;28;19917;-46
2022/10/05 07:20:15;;;;;;;;;;;;;;;14.03;100.00;101496.56;5009752;28;20303;-44
2022/10/05 07:22:47;;;;;;;;;;;;;;;14.07;100.00;101495.22;5011715;28;20300;-43
2022/10/05 07:25:20;;;;;;;;;;;;;;;14.13;100.00;101489.16;5012587;28;19932;-46
2022/10/05 07:27:49;;;;;;;;;;;;;;;14.20;100.00;101492.00;5010572;28;19921;-43
2022/10/05 07:30:15;;;;;;;;;;;;;;;14.27;100.00;101505.59;5009287;28;20020;-43
2022/10/05 07:32:43;;;;;;;;;;;;;;;14.29;100.00;101500.91;5009350;28;20480;-43
2022/10/05 07:38:19;;;;;;;;;;;;;;;14.38;100.00;101496.38;4999048;28;19924;-48
2022/10/05 07:41:04;;;;;;;;;;;;;;;14.41;100.00;101502.25;4999314;28;20454;-45
2022/10/05 07:43:32;;;;;;;;;;;;;;;14.45;100.00;101497.38;4999135;28;19941;-43
2022/10/05 07:46:04;;;;;;;;;;;;;;;14.49;100.00;101498.69;5009161;28;19925;-43
2022/10/05 07:48:34;;;;;;;;;;;;;;;14.53;100.00;101505.44;5008544;28;19913;-47
2022/10/05 07:51:11;;;;;;;;;;;;;;;14.55;100.00;101504.22;5000088;28;19916;-43
2022/10/05 07:53:38;;;;;;;;;;;;;;;14.57;100.00;101504.06;5001001;28;19944;-43
2022/10/05 07:56:14;;;;;;;;;;;;;;;14.60;100.00;101503.75;5009441;28;20475;-44
2022/10/05 07:58:42;;;;;;;;;;;;;;;14.61;100.00;101501.91;5010229;28;20684;-43
2022/10/05 08:01:11;;;;;;;;;;;;;;;14.63;100.00;101508.78;5007824;28;20376;-47
2022/10/05 08:03:46;;;;;;;;;;;;;;;14.68;100.00;101511.81;5001725;28;19917;-41
2022/10/05 08:06:15;;;;;;;;;;;;;;;14.72;100.00;101499.69;5005783;28;19996;-43
2022/10/05 08:08:48;;;;;;;;;;;;;;;14.82;100.00;101491.44;5002008;28;19937;-41
2022/10/05 08:11:26;;;;;;;;;;;;;;;14.90;100.00;101494.09;5017960;28;20000;-44
2022/10/05 08:13:59;;;;;;;;;;;;;;;15.02;100.00;101488.31;5017932;28;20008;-43
2022/10/05 08:16:27;;;;;;;;;;;;;;;15.13;100.00;101485.25;5017882;28;19935;-45
2022/10/05 08:18:58;;;;;;;;;;;;;;;15.21;100.00;101487.06;5018153;28;20336;-42
2022/10/05 08:21:35;;;;;;;;;;;;;;;15.23;100.00;101482.34;5018159;28;19917;-42
2022/10/05 08:24:03;;;;;;;;;;;;;;;15.25;100.00;101480.31;5005114;28;19921;-43
2022/10/05 08:26:34;;;;;;;;;;;;;;;15.26;100.00;101482.81;5008791;28;19913;-43
2022/10/05 08:28:59;;;;;;;;;;;;;;;15.29;100.00;101479.78;5012471;28;19961;-46
2022/10/05 08:31:32;;;;;;;;;;;;;;;15.25;100.00;101478.44;5005628;28;19914;-43
2022/10/05 08:34:03;;;;;;;;;;;;;;;15.30;100.00;101475.25;4999628;28;20038;-45
2022/10/05 08:36:44;;;;;;;;;;;;;;;15.39;100.00;101481.41;5001812;28;20186;-42
2022/10/05 08:39:16;;;;;;;;;;;;;;;15.48;100.00;101462.34;4999068;28;19917;-47
2022/10/05 08:42:04;;;;;;;;;;;;;;;15.58;100.00;101475.56;4997406;28;19913;-45
2022/10/05 08:44:48;;;;;;;;;;;;;;;15.65;100.00;101467.63;4999024;28;19917;-47
2022/10/05 08:47:16;;;;;;;;;;;;;;;15.70;100.00;101467.91;5003621;28;19982;-42
2022/10/05 08:49:50;;;;;;;;;;;;;;;15.74;100.00;101469.22;5003300;28;19968;-42
2022/10/05 08:52:21;;;;;;;;;;;;;;;15.76;100.00;101467.22;5010163;28;19924;-44
2022/10/05 08:54:59;;;;;;;;;;;;;;;15.77;100.00;101460.81;5010137;28;19913;-42
2022/10/05 08:57:42;;;;;;;;;;;;;;;15.83;100.00;101459.25;5008851;28;19917;-44
2022/10/05 09:00:21;;;;;;;;;;;;;;;15.91;100.00;101461.88;5001030;28;19971;-46
2022/10/05 09:03:01;;;;;;;;;;;;;;;15.96;100.00;101464.03;5009303;28;20028;-45
2022/10/05 09:05:56;;;;;;;;;;;;;;;15.97;100.00;101455.78;4998957;28;19928;-42
2022/10/05 09:08:40;;;;;;;;;;;;;;;16.06;100.00;101450.31;4997322;28;20398;-45
2022/10/05 09:11:20;;;;;;;;;;;;;;;16.13;100.00;101451.25;5016512;28;19970;-43
2022/10/05 09:14:00;;;;;;;;;;;;;;;16.31;100.00;101453.59;5017861;28;20264;-45
2022/10/05 09:16:35;;;;;;;;;;;;;;;16.36;100.00;101445.78;5018783;28;19936;-45
2022/10/05 09:19:27;;;;;;;;;;;;;;;16.42;100.00;101458.53;5018245;28;19917;-42
2022/10/05 09:21:56;;;;;;;;;;;;;;;16.44;100.00;101452.97;5010228;28;19923;-42
2022/10/05 09:24:21;;;;;;;;;;;;;;;16.50;100.00;101463.03;5019082;28;20011;-42
2022/10/05 09:27:01;;;;;;;;;;;;;;;16.46;100.00;101445.53;5017427;28;20376;-45
2022/10/05 09:29:44;;;;;;;;;;;;;;;16.53;100.00;101447.31;5015076;28;20518;-43
2022/10/05 09:32:29;;;;;;;;;;;;;;;16.58;100.00;101446.72;5015215;28;20396;-43
2022/10/05 09:35:12;;;;;;;;;;;;;;;16.56;100.00;101438.84;5015060;28;19927;-43
2022/10/05 09:37:46;;;;;;;;;;;;;;;16.63;100.00;101444.31;5018899;28;19913;-42
2022/10/05 09:40:11;;;;;;;;;;;;;;;16.64;100.00;101450.56;5017130;28;19948;-42
2022/10/05 09:42:54;;;;;;;;;;;;;;;16.64;100.00;101437.91;5017437;28;19948;-42
2022/10/05 09:45:38;;;;;;;;;;;;;;;16.70;100.00;101439.00;5018294;28;19917;-44
2022/10/05 09:48:24;;;;;;;;;;;;;;;16.83;100.00;101433.78;5018379;28;19924;-43
2022/10/05 09:51:08;;;;;;;;;;;;;;;16.95;100.00;101434.19;5017361;28;20351;-46
2022/10/05 09:53:52;;;;;;;;;;;;;;;16.94;100.00;101430.66;5018243;28;20368;-42
2022/10/05 09:56:28;;;;;;;;;;;;;;;16.95;100.00;101421.56;5017521;28;19924;-42
2022/10/05 09:59:05;;;;;;;;;;;;;;;16.98;100.00;101419.50;5010066;28;19913;-41
2022/10/05 10:01:33;;;;;;;;;;;;;;;17.02;100.00;101421.59;5011007;28;19927;-42
2022/10/05 10:04:08;;;;;;;;;;;;;;;17.01;100.00;101411.84;5015717;28;19921;-42
2022/10/05 10:06:52;;;;;;;;;;;;;;;16.96;100.00;101408.88;5011466;28;19933;-43
2022/10/05 10:09:38;;;;;;;;;;;;;;;16.92;100.00;101408.44;5013123;28;19975;-42
2022/10/05 10:12:25;;;;;;;;;;;;;;;17.00;100.00;101407.47;5017783;28;19915;-42
2022/10/05 10:15:09;;;;;;;;;;;;;;;17.03;100.00;101399.00;5017525;28;19920;-43
2022/10/05 10:17:43;;;;;;;;;;;;;;;17.27;100.00;101391.56;5017523;28;20059;-41
2022/10/05 10:20:21;;;;;;;;;;;;;;;17.30;100.00;101397.41;5018166;28;20352;-44
2022/10/05 10:23:00;;;;;;;;;;;;;;;17.41;100.00;101393.34;5014203;28;20286;-41
2022/10/05 10:25:40;;;;;;;;;;;;;;;17.45;100.00;101400.06;5014842;28;20020;-45
2022/10/05 10:28:26;;;;;;;;;;;;;;;17.59;100.00;101400.19;5012607;28;20004;-41
2022/10/05 10:31:07;;;;;;;;;;;;;;;17.70;100.00;101394.25;5011953;28;19920;-43
2022/10/05 10:33:42;;;;;;;;;;;;;;;17.82;100.00;101390.00;5006079;28;20027;-43
2022/10/05 10:36:21;;;;;;;;;;;;;;;17.83;100.00;101386.25;5012510;28;20300;-46
2022/10/05 10:38:58;;;;;;;;;;;;;;;17.87;100.00;101379.47;5016862;28;20761;-45
2022/10/05 10:41:34;;;;;;;;;;;;;;;18.05;100.00;101378.97;5006909;28;20013;-45
2022/10/05 10:44:14;;;;;;;;;;;;;;;18.13;100.00;101375.28;4998896;28;20020;-44
2022/10/05 10:47:00;;;;;;;;;;;;;;;18.12;100.00;101362.78;5001585;28;19983;-46
2022/10/05 10:49:44;;;;;;;;;;;;;;;18.05;100.00;101362.75;5001093;28;19914;-42
2022/10/05 10:52:16;;;;;;;;;;;;;;;17.97;100.00;101365.59;5000759;28;19961;-46
2022/10/05 10:55:00;;;;;;;;;;;;;;;17.96;100.00;101388.25;4999650;28;19918;-42
2022/10/05 10:57:51;;;;;;;;;;;;;;;18.02;100.00;101365.00;5004418;28;20079;-43
2022/10/05 11:00:23;;;;;;;;;;;;;;;18.06;100.00;101363.59;5005770;28;19922;-45
2022/10/05 11:03:07;;;;;;;;;;;;;;;18.08;100.00;101358.81;5002220;28;19974;-45
2022/10/05 11:06:10;;;;;;;;;;;;;;;18.03;100.00;101351.31;5008394;28;20304;-42
2022/10/05 11:08:45;;;;;;;;;;;;;;;18.16;100.00;101355.09;5007003;28;19918;-42
2022/10/05 11:11:22;;;;;;;;;;;;;;;18.33;100.00;101358.31;5016190;28;20018;-43
2022/10/05 11:13:47;;;;;;;;;;;;;;;18.33;99.98;101350.22;5011177;28;19940;-42
2022/10/05 11:16:23;;;;;;;;;;;;;;;18.28;100.00;101348.13;5011865;28;19917;-42
2022/10/05 11:18:54;;;;;;;;;;;;;;;18.56;100.00;101356.16;5000931;28;19921;-46
2022/10/05 11:21:35;;;;;;;;;;;;;;;18.64;99.35;101357.88;5000594;28;20006;-44
2022/10/05 11:24:00;;;;;;;;;;;;;;;18.67;100.00;101337.66;5001537;28;20412;-45
2022/10/05 11:26:31;;;;;;;;;;;;;;;18.69;100.00;101344.56;4999912;28;20007;-44
2022/10/05 11:29:16;;;;;;;;;;;;;;;18.80;98.35;101335.88;5000805;28;19920;-44
2022/10/05 11:31:41;;;;;;;;;;;;;;;18.82;98.32;101328.41;5008599;28;20008;-46
2022/10/05 11:34:16;;;;;;;;;;;;;;;18.70;96.82;101327.28;5008524;28;20376;-45
2022/10/05 11:36:52;;;;;;;;;;;;;;;18.81;98.17;101336.69;5007408;28;19920;-46
2022/10/05 11:39:23;;;;;;;;;;;;;;;18.92;96.14;101319.03;5003454;28;20233;-44
2022/10/05 11:42:07;;;;;;;;;;;;;;;18.98;96.99;101323.66;5007412;28;20020;-42
2022/10/05 11:44:51;;;;;;;;;;;;;;;19.17;95.83;101319.28;5002689;28;20031;-43
2022/10/05 11:47:16;;;;;;;;;;;;;;;19.37;94.21;101313.91;5006898;28;19922;-43
2022/10/05 11:49:45;;;;;;;;;;;;;;;19.39;93.23;101307.22;5006203;28;19914;-45
2022/10/05 11:52:10;;;;;;;;;;;;;;;19.61;93.71;101308.91;5000109;28;20303;-45
2022/10/05 11:54:43;;;;;;;;;;;;;;;19.85;92.91;101319.09;5013399;28;19919;-44
2022/10/05 11:57:14;;;;;;;;;;;;;;;20.09;92.23;101304.03;4999480;28;19925;-43
2022/10/05 11:59:39;;;;;;;;;;;;;;;20.20;88.04;101302.53;5000035;28;20340;-46
2022/10/05 12:02:05;;;;;;;;;;;;;;;20.16;88.50;101295.88;5010064;28;20019;-43
2022/10/05 12:04:42;;;;;;;;;;;;;;;19.98;90.30;101280.28;5000614;28;20062;-42
2022/10/05 12:07:10;;;;;;;;;;;;;;;20.01;89.35;101287.16;4999738;28;20442;-47
2022/10/05 12:12:56;;;;;;;;;;;;;;;20.33;88.68;101271.81;5016238;28;19924;-43
2022/10/05 12:15:27;;;;;;;;;;;;;;;20.60;88.03;101266.25;5019397;28;19946;-45
2022/10/05 12:18:03;;;;;;;;;;;;;;;20.92;86.03;101267.13;5014960;28;19989;-44
2022/10/05 12:20:31;;;;;;;;;;;;;;;20.68;84.83;101266.84;5008227;28;19921;-44
2022/10/05 12:23:00;;;;;;;;;;;;;;;21.00;84.54;101271.47;5001349;28;19921;-45
2022/10/05 12:25:28;;;;;;;;;;;;;;;21.51;82.10;101266.91;4999268;28;19918;-42
2022/10/05 12:27:57;;;;;;;;;;;;;;;22.13;78.91;101253.25;5003366;28;19921;-48
2022/10/05 12:30:28;;;;;;;;;;;;;;;22.46;76.39;101266.47;4999614;28;20317;-44
2022/10/05 12:33:17;;;;;;;;;;;;;;;22.13;77.39;101259.53;5012953;28;19961;-45
2022/10/05 12:36:04;;;;;;;;;;;;;;;22.22;76.78;101262.78;5001962;28;19924;-41
2022/10/05 12:38:35;;;;;;;;;;;;;;;22.50;76.02;101258.66;5016943;28;19913;-44
2022/10/05 12:41:09;;;;;;;;;;;;;;;22.52;73.66;101257.38;5016746;28;19913;-42
2022/10/05 12:43:34;;;;;;;;;;;;;;;22.41;74.97;101254.59;5015536;28;19921;-42
2022/10/05 12:46:03;;;;;;;;;;;;;;;22.39;76.19;101243.94;5016925;28;19943;-42
2022/10/05 12:48:37;;;;;;;;;;;;;;;22.31;73.01;101249.72;5017210;28;20512;-44
2022/10/05 12:51:08;;;;;;;;;;;;;;;22.06;75.75;101252.50;5017414;28;19949;-43
2022/10/05 12:53:56;;;;;;;;;;;;;;;22.47;71.74;101251.78;5004024;28;19933;-46
2022/10/05 12:56:27;;;;;;;;;;;;;;;22.13;71.36;101264.97;5015641;28;20316;-44
2022/10/05 12:59:06;;;;;;;;;;;;;;;21.67;74.55;101255.44;4998251;28;19917;-47
2022/10/05 13:01:39;;;;;;;;;;;;;;;21.43;75.89;101257.09;4999896;28;20012;-42
2022/10/05 13:04:23;;;;;;;;;;;;;;;21.16;78.32;101249.19;4997585;28;20258;-41
2022/10/05 13:07:07;;;;;;;;;;;;;;;20.93;78.66;101257.13;4995673;28;20355;-43
2022/10/05 13:09:52;;;;;;;;;;;;;;;20.66;80.24;101246.44;5011660;28;20427;-43
2022/10/05 13:12:24;;;;;;;;;;;;;;;20.75;80.44;101244.28;5015447;28;19921;-41